Fancy Hill, Arkansas
Current Conditions -  °F | °C
As of 7:53 PM on Thursday 18 Dec 2014 (Local Time) from KMWT Reporting Station
Overcast Overcast  
Wind Chill: 43°   Ceiling: 400
Heat Index: 43°   Visibility: 9mi
Dew Point: 41°   Wind: 0mph
Humidity: 93%   Direction: NA
Pressure: 30.18"   Gusts: NA
Location:  34.4166°N, 93.6435°W
Report Text: KMWT 190153Z AUTO 00000KT 9SM OVC004 06/05 A3018 RMK AO2 SLP226 T00610050
Loading
Personal Weather Stations






























Interactive Weather Map New forecast layout! Learn more

10-Day Weather Forecast

Advertisements
Track Severe Weather on mobile